createdAt,value
2022-11-14T00:01:28.908Z,34.83
2022-11-14T00:03:55.189Z,35.03
2022-11-14T00:06:21.505Z,35.64
2022-11-14T00:08:47.761Z,34.91
2022-11-14T00:11:14.056Z,35.21
2022-11-14T00:13:40.324Z,34.94
2022-11-14T00:16:06.661Z,35.62
2022-11-14T00:18:33.171Z,35.39
2022-11-14T00:20:59.529Z,36.33
2022-11-14T00:23:25.867Z,36.39
2022-11-14T00:25:52.181Z,36.54
2022-11-14T00:28:18.476Z,36.39
2022-11-14T00:30:48.414Z,35.78
2022-11-14T00:33:19.830Z,36.12
2022-11-14T00:35:53.396Z,35.81
2022-11-14T00:38:19.660Z,35.43
2022-11-14T00:40:45.913Z,36.31
2022-11-14T00:43:12.220Z,35.46
2022-11-14T00:45:38.572Z,35.95
2022-11-14T00:48:04.878Z,35.44
2022-11-14T00:50:31.151Z,36.16
2022-11-14T00:52:57.467Z,35.83
2022-11-14T00:55:23.751Z,35.83
2022-11-14T00:57:50.061Z,36.16
2022-11-14T01:00:16.343Z,36.24
2022-11-14T01:02:42.619Z,36.01
2022-11-14T01:05:08.880Z,37.11
2022-11-14T01:07:35.182Z,37.28
2022-11-14T01:10:01.448Z,36.86
2022-11-14T01:12:27.718Z,36.87
2022-11-14T01:14:53.988Z,36.56
2022-11-14T01:17:20.244Z,37.00
2022-11-14T01:19:46.525Z,36.85
2022-11-14T01:22:12.798Z,36.43
2022-11-14T01:24:39.088Z,36.33
2022-11-14T01:27:05.362Z,37.12
2022-11-14T01:29:31.656Z,36.38
2022-11-14T01:31:57.967Z,36.77
2022-11-14T01:34:24.297Z,36.17
2022-11-14T01:36:50.564Z,36.05
2022-11-14T01:39:16.859Z,36.31
2022-11-14T01:41:43.136Z,36.73
2022-11-14T01:44:13.824Z,35.46
2022-11-14T01:46:40.502Z,36.58
2022-11-14T01:49:11.450Z,35.99
2022-11-14T01:51:39.265Z,36.24
2022-11-14T01:54:06.769Z,36.34
2022-11-14T01:56:33.988Z,36.21
2022-11-14T01:59:05.169Z,35.48
2022-11-14T02:01:31.955Z,35.49
2022-11-14T02:03:58.333Z,35.87
2022-11-14T02:06:25.565Z,36.32
2022-11-14T02:08:51.859Z,35.92
2022-11-14T02:11:18.139Z,35.54
2022-11-14T02:13:44.436Z,35.33
2022-11-14T02:16:10.712Z,35.43
2022-11-14T02:18:36.989Z,36.04
2022-11-14T02:21:03.276Z,35.43
2022-11-14T02:23:29.998Z,36.14
2022-11-14T02:25:56.393Z,36.43
2022-11-14T02:28:23.197Z,36.00
2022-11-14T02:30:49.580Z,36.56
2022-11-14T02:33:15.874Z,36.71
2022-11-14T02:35:42.247Z,37.13
2022-11-14T02:38:08.628Z,36.45
2022-11-14T02:40:34.880Z,37.14
2022-11-14T02:43:01.146Z,36.70
2022-11-14T02:45:27.420Z,36.76
2022-11-14T02:47:53.689Z,36.74
2022-11-14T02:50:19.950Z,37.06
2022-11-14T02:52:46.233Z,36.38
2022-11-14T02:55:12.524Z,36.23
2022-11-14T02:57:38.804Z,36.67
2022-11-14T03:00:08.715Z,36.59
2022-11-14T03:02:38.040Z,36.85
2022-11-14T03:05:04.406Z,37.12
2022-11-14T03:07:30.765Z,37.03
2022-11-14T03:09:57.120Z,38.29
2022-11-14T03:12:23.382Z,38.37
2022-11-14T03:14:49.663Z,38.23
2022-11-14T03:17:15.962Z,37.93
2022-11-14T03:19:42.229Z,38.25
2022-11-14T03:22:08.511Z,40.74
2022-11-14T03:24:34.801Z,40.50
2022-11-14T03:27:01.068Z,41.86
2022-11-14T03:29:27.509Z,43.56
2022-11-14T03:31:53.780Z,42.84
2022-11-14T03:34:20.055Z,40.72
2022-11-14T03:36:46.341Z,40.87
2022-11-14T03:39:12.626Z,42.13
2022-11-14T03:41:38.900Z,41.83
2022-11-14T03:44:05.171Z,43.54
2022-11-14T03:46:31.471Z,43.23
2022-11-14T03:48:57.759Z,44.11
2022-11-14T03:51:24.077Z,42.64
2022-11-14T03:53:50.362Z,43.64
2022-11-14T03:56:18.397Z,46.14
2022-11-14T03:58:44.659Z,45.15
2022-11-14T04:01:11.034Z,46.75
2022-11-14T04:03:37.340Z,47.81
2022-11-14T04:06:03.673Z,47.21
2022-11-14T04:08:30.213Z,48.13
2022-11-14T04:10:56.784Z,49.23
2022-11-14T04:13:23.061Z,50.96
2022-11-14T04:15:58.504Z,51.13
2022-11-14T04:18:24.960Z,51.11
2022-11-14T04:20:51.336Z,50.91
2022-11-14T04:23:17.601Z,50.78
2022-11-14T04:25:44.181Z,51.67
2022-11-14T04:28:10.441Z,51.54
2022-11-14T04:30:36.771Z,51.87
2022-11-14T04:33:03.052Z,52.72
2022-11-14T04:35:29.307Z,52.21
2022-11-14T04:37:55.616Z,52.10
2022-11-14T04:40:21.903Z,51.56
2022-11-14T04:42:48.330Z,51.98
2022-11-14T04:45:14.729Z,51.47
2022-11-14T04:47:41.698Z,50.87
2022-11-14T04:50:08.279Z,52.30
2022-11-14T04:52:34.562Z,52.59
2022-11-14T04:55:00.838Z,53.08
2022-11-14T04:57:27.167Z,53.65
2022-11-14T04:59:53.444Z,53.39
2022-11-14T05:02:19.710Z,54.00
2022-11-14T05:04:47.210Z,53.67
2022-11-14T05:07:13.544Z,55.39
2022-11-14T05:09:40.024Z,53.87
2022-11-14T05:12:06.467Z,52.67
2022-11-14T05:14:32.857Z,52.81
2022-11-14T05:16:59.138Z,52.75
2022-11-14T05:19:25.415Z,54.00
2022-11-14T05:21:51.690Z,52.89
2022-11-14T05:24:19.227Z,54.51
2022-11-14T05:26:45.768Z,55.15
2022-11-14T05:29:12.032Z,56.46
2022-11-14T05:31:38.302Z,56.45
2022-11-14T05:34:04.618Z,56.16
2022-11-14T05:36:30.880Z,55.16
2022-11-14T05:38:57.264Z,55.49
2022-11-14T05:41:23.543Z,55.41
2022-11-14T05:43:49.839Z,55.51
2022-11-14T05:46:16.171Z,55.07
2022-11-14T05:48:42.469Z,55.53
2022-11-14T05:51:10.095Z,55.06
2022-11-14T05:53:36.530Z,54.90
2022-11-14T05:56:04.099Z,55.17
2022-11-14T05:58:33.717Z,55.19
2022-11-14T06:01:03.103Z,55.15
2022-11-14T06:03:36.210Z,55.09
2022-11-14T06:06:03.063Z,55.05
2022-11-14T06:08:29.972Z,54.48
2022-11-14T06:10:56.509Z,54.31
2022-11-14T06:13:24.233Z,54.40
2022-11-14T06:15:50.849Z,54.33
2022-11-14T06:18:17.167Z,54.40
2022-11-14T06:20:43.435Z,55.04
2022-11-14T06:23:09.700Z,55.46
2022-11-14T06:25:35.957Z,52.88
2022-11-14T06:28:02.231Z,54.55
2022-11-14T06:30:28.492Z,56.49
2022-11-14T06:32:58.985Z,56.96
2022-11-14T06:35:25.746Z,56.48
2022-11-14T06:37:52.016Z,55.85
2022-11-14T06:40:18.281Z,56.77
2022-11-14T06:42:44.587Z,55.94
2022-11-14T06:45:11.033Z,55.65
2022-11-14T06:47:37.291Z,54.29
2022-11-14T06:50:03.617Z,55.48
2022-11-14T06:52:30.672Z,55.38
2022-11-14T06:54:56.946Z,56.14
2022-11-14T06:57:23.274Z,55.37
2022-11-14T06:59:49.542Z,54.63
2022-11-14T07:02:21.449Z,55.24
2022-11-14T07:04:48.104Z,54.10
2022-11-14T07:07:14.425Z,55.67
2022-11-14T07:09:40.746Z,56.56
2022-11-14T07:12:08.484Z,55.66
2022-11-14T07:14:34.745Z,54.36
2022-11-14T07:17:01.076Z,54.24
2022-11-14T07:19:27.334Z,54.31
2022-11-14T07:21:53.658Z,55.30
2022-11-14T07:24:19.918Z,55.64
2022-11-14T07:26:46.497Z,55.32
2022-11-14T07:29:12.772Z,55.06
2022-11-14T07:31:39.854Z,54.72
2022-11-14T07:34:06.139Z,54.79
2022-11-14T07:36:32.406Z,53.99
2022-11-14T07:38:58.663Z,53.75
2022-11-14T07:41:24.936Z,54.16
2022-11-14T07:43:51.250Z,53.51
2022-11-14T07:46:17.902Z,54.29
2022-11-14T07:48:44.302Z,53.92
2022-11-14T07:51:13.722Z,54.82
2022-11-14T07:53:40.018Z,55.38
2022-11-14T07:56:06.853Z,53.83
2022-11-14T07:58:34.929Z,54.63
2022-11-14T08:01:02.056Z,54.35
2022-11-14T08:03:28.561Z,54.88
2022-11-14T08:06:01.678Z,53.94
2022-11-14T08:08:28.276Z,55.77
2022-11-14T08:10:58.331Z,55.23
2022-11-14T08:13:32.346Z,55.87
2022-11-14T08:16:02.657Z,55.04
2022-11-14T08:18:29.217Z,55.50
2022-11-14T08:20:57.499Z,55.21
2022-11-14T08:23:23.797Z,55.10
2022-11-14T08:25:50.123Z,54.41
2022-11-14T08:28:16.399Z,53.25
2022-11-14T08:30:42.666Z,54.80
2022-11-14T08:33:08.947Z,56.17
2022-11-14T08:35:35.255Z,57.18
2022-11-14T08:38:02.287Z,57.03
2022-11-14T08:40:28.792Z,57.03
2022-11-14T08:42:58.734Z,56.73
2022-11-14T08:45:25.120Z,56.86
2022-11-14T08:47:52.345Z,56.79
2022-11-14T08:50:18.650Z,56.94
2022-11-14T08:52:48.959Z,56.41
2022-11-14T08:55:15.255Z,56.80
2022-11-14T08:57:45.324Z,56.68
2022-11-14T09:00:15.718Z,56.70
2022-11-14T09:02:42.006Z,56.38
2022-11-14T09:05:08.607Z,56.68
2022-11-14T09:07:34.950Z,56.34
2022-11-14T09:10:01.292Z,56.94
2022-11-14T09:12:27.636Z,56.53
2022-11-14T09:14:53.918Z,57.34
2022-11-14T09:17:20.214Z,57.04
2022-11-14T09:19:46.494Z,56.80
2022-11-14T09:22:12.764Z,57.27
2022-11-14T09:24:39.021Z,58.84
2022-11-14T09:27:05.300Z,58.79
2022-11-14T09:29:31.578Z,58.65
2022-11-14T09:31:58.109Z,58.32
2022-11-14T09:34:24.372Z,58.17
2022-11-14T09:36:50.685Z,58.18
2022-11-14T09:39:16.965Z,57.17
2022-11-14T09:41:52.943Z,56.17
2022-11-14T09:44:25.302Z,56.42
2022-11-14T09:47:05.083Z,57.07
2022-11-14T09:49:44.454Z,56.98
2022-11-14T09:52:29.699Z,58.04
2022-11-14T09:54:56.777Z,57.56
2022-11-14T09:57:23.233Z,58.29
2022-11-14T09:59:49.491Z,59.16
2022-11-14T10:02:18.826Z,60.42
2022-11-14T10:05:08.491Z,59.95
2022-11-14T10:07:40.033Z,59.65
2022-11-14T10:10:14.373Z,58.75
2022-11-14T10:12:43.445Z,58.64
2022-11-14T10:15:11.721Z,59.34
2022-11-14T10:17:56.610Z,59.63
2022-11-14T10:20:25.829Z,58.98
2022-11-14T10:23:01.303Z,58.83
2022-11-14T10:25:40.934Z,59.84
2022-11-14T10:28:29.089Z,60.24
2022-11-14T10:31:04.798Z,59.24
2022-11-14T10:33:49.886Z,58.39
2022-11-14T10:36:16.127Z,59.14
2022-11-14T10:38:43.793Z,58.01
2022-11-14T10:41:19.274Z,57.60
2022-11-14T10:43:49.830Z,57.50
2022-11-14T10:46:36.953Z,57.64
2022-11-14T10:49:11.518Z,57.30
2022-11-14T10:51:38.761Z,57.01
2022-11-14T10:54:14.285Z,56.93
2022-11-14T10:56:50.733Z,57.75
2022-11-14T10:59:17.020Z,57.46
2022-11-14T11:01:44.019Z,57.33
2022-11-14T11:04:11.438Z,58.06
2022-11-14T11:06:37.782Z,58.11
2022-11-14T11:09:33.204Z,58.76
2022-11-14T11:12:01.501Z,59.15
2022-11-14T11:14:28.190Z,59.00
2022-11-14T11:17:12.746Z,60.52
2022-11-14T11:19:39.142Z,59.94
2022-11-14T11:22:05.531Z,59.48
2022-11-14T11:24:32.669Z,58.20
2022-11-14T11:27:20.588Z,56.96
2022-11-14T11:29:46.882Z,56.75
2022-11-14T11:32:23.753Z,57.78
2022-11-14T11:34:50.069Z,57.62
2022-11-14T11:37:18.470Z,57.09
2022-11-14T11:39:46.305Z,57.55
2022-11-14T11:42:14.970Z,57.91
2022-11-14T11:44:43.604Z,58.71
2022-11-14T11:47:11.287Z,59.07
2022-11-14T11:49:43.253Z,59.46
2022-11-14T11:52:13.943Z,59.31
2022-11-14T11:54:49.453Z,59.02
2022-11-14T11:57:21.481Z,59.41
2022-11-14T11:59:52.551Z,60.28
2022-11-14T12:02:27.866Z,60.99
2022-11-14T12:04:54.993Z,59.03
2022-11-14T12:07:22.289Z,59.75
2022-11-14T12:10:09.780Z,60.04
2022-11-14T12:12:43.791Z,60.48
2022-11-14T12:15:28.245Z,58.15
2022-11-14T12:17:54.460Z,60.19
2022-11-14T12:20:39.483Z,60.06
2022-11-14T12:23:15.121Z,59.83
2022-11-14T12:25:41.343Z,60.15
2022-11-14T12:28:26.566Z,60.11
2022-11-14T12:30:53.800Z,60.68
2022-11-14T12:33:22.395Z,61.41
2022-11-14T12:35:50.350Z,61.77
2022-11-14T12:38:17.552Z,61.29
2022-11-14T12:40:53.988Z,61.13
2022-11-14T12:43:37.654Z,61.01
2022-11-14T12:46:11.515Z,60.95
2022-11-14T12:48:46.883Z,60.34
2022-11-14T12:51:25.577Z,60.43
2022-11-14T12:53:52.607Z,60.90
2022-11-14T12:56:31.051Z,61.00
2022-11-14T12:59:03.359Z,61.30
2022-11-14T13:01:29.618Z,61.59
2022-11-14T13:04:14.624Z,61.96
2022-11-14T13:06:40.856Z,62.33
2022-11-14T13:09:18.296Z,61.48
2022-11-14T13:12:03.273Z,62.03
2022-11-14T13:14:48.620Z,60.25
2022-11-14T13:17:36.902Z,60.96
2022-11-14T13:20:22.216Z,61.33
2022-11-14T13:22:48.486Z,60.06
2022-11-14T13:25:15.234Z,60.32
2022-11-14T13:30:46.608Z,61.46
2022-11-14T13:33:26.954Z,61.02
2022-11-14T13:35:54.102Z,61.58
2022-11-14T13:38:20.330Z,62.25
2022-11-14T13:40:49.319Z,62.45
2022-11-14T13:43:21.954Z,61.95
2022-11-14T13:46:06.965Z,62.35
2022-11-14T13:48:33.202Z,61.70
2022-11-14T13:51:10.217Z,61.17
2022-11-14T13:53:47.013Z,62.15
2022-11-14T13:56:17.172Z,62.10
2022-11-14T13:58:49.488Z,62.47
2022-11-14T14:01:18.838Z,61.46
2022-11-14T14:03:48.131Z,61.88
2022-11-14T14:06:30.717Z,61.00
2022-11-14T14:09:09.196Z,61.40
2022-11-14T14:11:45.013Z,61.24
2022-11-14T14:14:11.246Z,60.64
2022-11-14T14:16:56.360Z,61.78
2022-11-14T14:19:25.974Z,61.20
2022-11-14T14:21:55.417Z,60.40
2022-11-14T14:24:26.906Z,59.89
2022-11-14T14:26:59.267Z,60.57
2022-11-14T14:29:25.504Z,60.20
2022-11-14T14:31:51.828Z,60.83
2022-11-14T14:34:21.138Z,61.80
2022-11-14T14:36:54.129Z,60.93
2022-11-14T14:39:20.381Z,61.80
2022-11-14T14:41:46.830Z,61.57
2022-11-14T14:44:26.712Z,61.00
2022-11-14T14:46:53.338Z,59.28
2022-11-14T14:49:20.674Z,59.91
2022-11-14T14:51:46.992Z,59.16
2022-11-14T14:54:20.311Z,60.35
2022-11-14T14:56:53.969Z,61.28
2022-11-14T14:59:21.752Z,61.54
2022-11-14T15:01:48.103Z,60.94
2022-11-14T15:04:14.585Z,61.17
2022-11-14T15:06:40.938Z,61.04
2022-11-14T15:09:07.134Z,60.21
2022-11-14T15:11:33.841Z,60.92
2022-11-14T15:14:00.295Z,59.21
2022-11-14T15:16:26.561Z,57.16
2022-11-14T15:18:53.256Z,58.50
2022-11-14T15:21:28.796Z,58.01
2022-11-14T15:23:58.506Z,56.71
2022-11-14T15:26:24.812Z,57.73
2022-11-14T15:28:51.159Z,56.98
2022-11-14T15:31:18.989Z,58.10
2022-11-14T15:33:45.270Z,58.41
2022-11-14T15:36:17.623Z,58.53
2022-11-14T15:39:00.719Z,58.91
2022-11-14T15:41:29.953Z,59.14
2022-11-14T15:44:01.784Z,58.36
2022-11-14T15:46:29.206Z,56.72
2022-11-14T15:48:55.500Z,56.95
2022-11-14T15:51:40.526Z,55.44
2022-11-14T15:54:18.104Z,55.80
2022-11-14T15:56:44.460Z,56.95
2022-11-14T15:59:11.986Z,57.73
2022-11-14T16:01:38.405Z,58.12
2022-11-14T16:04:04.827Z,57.39
2022-11-14T16:06:31.486Z,57.20
2022-11-14T16:08:57.752Z,57.07
2022-11-14T16:11:24.029Z,55.90
2022-11-14T16:13:50.302Z,56.14
2022-11-14T16:16:16.629Z,55.81
2022-11-14T16:18:42.915Z,55.65
2022-11-14T16:21:11.217Z,55.61
2022-11-14T16:23:39.261Z,55.49
2022-11-14T16:26:05.627Z,55.38
2022-11-14T16:28:31.883Z,55.83
2022-11-14T16:30:58.141Z,55.00
2022-11-14T16:33:24.469Z,54.62
2022-11-14T16:35:50.759Z,55.58
2022-11-14T16:38:17.089Z,55.00
2022-11-14T16:40:43.787Z,55.08
2022-11-14T16:43:11.652Z,55.24
2022-11-14T16:45:39.703Z,54.90
2022-11-14T16:48:05.963Z,55.02
2022-11-14T16:50:32.260Z,55.21
2022-11-14T16:52:58.564Z,55.58
2022-11-14T16:55:24.912Z,54.97
2022-11-14T16:57:51.196Z,55.47
2022-11-14T17:00:17.481Z,56.04
2022-11-14T17:02:43.982Z,56.24
2022-11-14T17:05:10.309Z,56.71
2022-11-14T17:07:36.662Z,56.15
2022-11-14T17:10:03.963Z,55.19
2022-11-14T17:12:30.415Z,56.58
2022-11-14T17:14:56.678Z,55.73
2022-11-14T17:17:22.941Z,55.68
2022-11-14T17:19:49.255Z,55.44
2022-11-14T17:22:15.751Z,55.37
2022-11-14T17:24:42.217Z,55.60
2022-11-14T17:27:08.602Z,55.18
2022-11-14T17:29:34.949Z,55.54
2022-11-14T17:32:01.255Z,55.71
2022-11-14T17:34:27.979Z,55.30
2022-11-14T17:36:54.252Z,55.38
2022-11-14T17:39:20.563Z,55.00
2022-11-14T17:41:46.823Z,54.83
2022-11-14T17:44:13.123Z,55.75
2022-11-14T17:46:39.401Z,55.04
2022-11-14T17:49:05.665Z,55.61
2022-11-14T17:51:34.518Z,54.91
2022-11-14T17:54:00.804Z,55.00
2022-11-14T17:56:27.349Z,55.14
2022-11-14T17:58:53.669Z,55.13
2022-11-14T18:01:23.604Z,54.94
2022-11-14T18:03:50.281Z,54.44
2022-11-14T18:06:19.006Z,54.71
2022-11-14T18:08:45.371Z,54.95
2022-11-14T18:11:12.221Z,55.12
2022-11-14T18:13:38.710Z,54.83
2022-11-14T18:16:05.998Z,55.45
2022-11-14T18:21:12.138Z,55.67
2022-11-14T18:23:38.704Z,55.36
2022-11-14T18:26:10.908Z,55.22
2022-11-14T18:28:37.222Z,55.36
2022-11-14T18:31:04.534Z,55.11
2022-11-14T18:33:30.846Z,54.61
2022-11-14T18:36:00.304Z,55.00
2022-11-14T18:38:29.209Z,55.14
2022-11-14T18:40:57.553Z,55.48
2022-11-14T18:43:24.090Z,57.01
2022-11-14T18:45:50.870Z,57.06
2022-11-14T18:48:17.249Z,57.15
2022-11-14T18:50:43.620Z,56.30
2022-11-14T18:53:09.931Z,56.39
2022-11-14T18:55:40.135Z,56.68
2022-11-14T18:58:06.514Z,56.06
2022-11-14T19:00:32.905Z,56.21
2022-11-14T19:03:03.436Z,55.79
2022-11-14T19:05:34.728Z,55.03
2022-11-14T19:08:00.992Z,54.96
2022-11-14T19:10:27.291Z,55.21
2022-11-14T19:12:53.566Z,54.98
2022-11-14T19:15:19.849Z,55.02
2022-11-14T19:17:46.780Z,54.92
2022-11-14T19:20:14.550Z,55.09
2022-11-14T19:22:41.132Z,55.28
2022-11-14T19:25:07.676Z,55.43
2022-11-14T19:27:33.941Z,55.70
2022-11-14T19:30:00.254Z,54.96
2022-11-14T19:32:26.587Z,55.04
2022-11-14T19:34:52.934Z,55.20
2022-11-14T19:37:19.206Z,54.82
2022-11-14T19:39:45.480Z,54.94
2022-11-14T19:42:11.742Z,56.78
2022-11-14T19:44:38.135Z,56.02
2022-11-14T19:47:04.400Z,55.60
2022-11-14T19:49:31.300Z,55.05
2022-11-14T19:51:57.576Z,55.50
2022-11-14T19:54:23.831Z,56.13
2022-11-14T19:56:50.098Z,55.81
2022-11-14T19:59:21.391Z,55.54
2022-11-14T20:01:55.086Z,55.77
2022-11-14T20:04:21.609Z,55.36
2022-11-14T20:06:47.971Z,55.07
2022-11-14T20:09:14.333Z,54.92
2022-11-14T20:11:40.597Z,54.75
2022-11-14T20:14:06.947Z,54.51
2022-11-14T20:16:34.012Z,54.56
2022-11-14T20:19:00.602Z,54.22
2022-11-14T20:21:27.329Z,53.81
2022-11-14T20:23:53.671Z,54.31
2022-11-14T20:26:19.961Z,54.84
2022-11-14T20:28:46.502Z,54.80
2022-11-14T20:31:13.640Z,55.24
2022-11-14T20:33:40.542Z,55.33
2022-11-14T20:36:08.611Z,55.64
2022-11-14T20:38:34.874Z,55.13
2022-11-14T20:41:01.139Z,55.71
2022-11-14T20:43:28.176Z,55.25
2022-11-14T20:46:01.779Z,54.83
2022-11-14T20:48:28.543Z,55.09
2022-11-14T20:51:21.303Z,55.33
2022-11-14T20:53:47.793Z,55.73
2022-11-14T20:56:14.129Z,55.43
2022-11-14T20:58:40.980Z,55.27
2022-11-14T21:01:07.345Z,55.36
2022-11-14T21:03:33.948Z,56.12
2022-11-14T21:06:00.715Z,56.92
2022-11-14T21:08:27.266Z,56.33
2022-11-14T21:10:57.620Z,56.06
2022-11-14T21:13:42.692Z,55.73
2022-11-14T21:16:09.947Z,55.71
2022-11-14T21:18:38.225Z,56.62
2022-11-14T21:21:11.608Z,56.70
2022-11-14T21:23:37.991Z,55.80
2022-11-14T21:26:07.872Z,55.89
2022-11-14T21:28:34.788Z,55.13
2022-11-14T21:31:01.102Z,55.10
2022-11-14T21:33:28.017Z,55.04
2022-11-14T21:35:54.477Z,55.29
2022-11-14T21:38:20.768Z,55.80
2022-11-14T21:40:53.715Z,55.33
2022-11-14T21:43:20.101Z,54.41
2022-11-14T21:46:03.327Z,54.07
2022-11-14T21:48:30.270Z,54.55
2022-11-14T21:51:10.820Z,55.41
2022-11-14T21:53:37.283Z,55.48
2022-11-14T21:56:07.029Z,56.40
2022-11-14T21:58:33.352Z,55.30
2022-11-14T22:01:37.435Z,55.48
2022-11-14T22:04:12.413Z,55.52
2022-11-14T22:06:39.193Z,54.57
2022-11-14T22:09:05.522Z,56.23
2022-11-14T22:11:31.795Z,55.10
2022-11-14T22:13:58.142Z,55.23
2022-11-14T22:16:24.425Z,55.11
2022-11-14T22:18:53.908Z,55.94
2022-11-14T22:21:20.168Z,56.21
2022-11-14T22:23:46.438Z,55.68
2022-11-14T22:26:12.903Z,55.71
2022-11-14T22:28:39.287Z,55.67
2022-11-14T22:31:15.702Z,57.48
2022-11-14T22:33:45.701Z,58.93
2022-11-14T22:36:14.188Z,58.65
2022-11-14T22:38:40.585Z,59.05
2022-11-14T22:41:10.927Z,57.83
2022-11-14T22:43:37.216Z,58.10
2022-11-14T22:46:03.497Z,57.36
2022-11-14T22:48:30.629Z,56.85
2022-11-14T22:51:04.080Z,55.96
2022-11-14T22:53:30.911Z,55.21
2022-11-14T22:55:57.505Z,55.12
2022-11-14T22:58:23.839Z,55.13
2022-11-14T23:00:51.130Z,54.28
2022-11-14T23:03:20.530Z,54.72
2022-11-14T23:05:47.060Z,56.16
2022-11-14T23:08:16.601Z,56.92
2022-11-14T23:10:42.989Z,56.77
2022-11-14T23:13:09.452Z,57.30
2022-11-14T23:15:36.496Z,57.24
2022-11-14T23:18:02.918Z,57.08
2022-11-14T23:20:29.208Z,57.48
2022-11-14T23:22:55.464Z,56.92
2022-11-14T23:25:21.831Z,56.45
2022-11-14T23:27:48.178Z,56.28
2022-11-14T23:30:14.474Z,55.64
2022-11-14T23:32:40.741Z,56.25
2022-11-14T23:35:07.260Z,56.47
2022-11-14T23:37:33.542Z,56.38
2022-11-14T23:39:59.821Z,56.35
2022-11-14T23:42:26.079Z,56.46
2022-11-14T23:44:52.347Z,57.26
2022-11-14T23:47:18.628Z,56.38
2022-11-14T23:49:44.930Z,56.12
2022-11-14T23:52:11.192Z,55.81
2022-11-14T23:54:37.553Z,55.65
2022-11-14T23:57:04.814Z,54.92
2022-11-14T23:59:31.183Z,55.55
